Time;durP1;ratioP1;P1;durP2;ratioP2;P2;SDS_P1;SDS_P2;PMS_P1;PMS_P2;Temp;Humidity;BMP_temperature;BMP_pressure;BME280_temperature;BME280_humidity;BME280_pressure;Samples;Min_cycle;Max_cycle;Signal;HPM_P1;HPM_P2
2022/07/14 00:00:26;;;;;;;;;;;;;;;30.06;24.35;101433.78;4433615;32;19968;-68
2022/07/14 00:02:52;;;;;;;;;;;;;;;30.09;24.30;101423.94;4429827;32;20008;-68
2022/07/14 00:05:18;;;;;;;;;;;;;;;29.99;24.41;101429.44;4432906;32;20001;-68
2022/07/14 00:07:43;;;;;;;;;;;;;;;29.61;24.85;101433.03;4432286;32;20381;-69
2022/07/14 00:10:09;;;;;;;;;;;;;;;29.71;24.75;101431.31;4432480;32;19965;-68
2022/07/14 00:12:34;;;;;;;;;;;;;;;29.53;24.81;101424.22;4432632;32;20059;-68
2022/07/14 00:15:00;;;;;;;;;;;;;;;29.68;24.74;101418.69;4430325;32;20432;-68
2022/07/14 00:17:25;;;;;;;;;;;;;;;29.43;25.02;101416.50;4433645;32;19949;-69
2022/07/14 00:19:51;;;;;;;;;;;;;;;29.32;25.23;101419.63;4431034;32;20256;-69
2022/07/14 00:22:17;;;;;;;;;;;;;;;29.65;24.87;101419.00;4431962;32;20445;-69
2022/07/14 00:24:43;;;;;;;;;;;;;;;29.29;25.27;101417.81;4433890;32;19957;-69
2022/07/14 00:27:08;;;;;;;;;;;;;;;29.51;25.08;101415.28;4431091;32;19997;-69
2022/07/14 00:29:35;;;;;;;;;;;;;;;29.61;24.98;101406.94;4430540;32;20024;-69
2022/07/14 00:32:02;;;;;;;;;;;;;;;29.64;24.93;101412.44;4432366;32;21072;-69
2022/07/14 00:34:28;;;;;;;;;;;;;;;29.78;24.71;101411.09;4419930;32;19993;-69
2022/07/14 00:36:53;;;;;;;;;;;;;;;29.62;24.85;101415.12;4431424;32;20012;-69
2022/07/14 00:39:19;;;;;;;;;;;;;;;29.80;24.62;101407.66;4432120;32;20365;-69
2022/07/14 00:41:44;;;;;;;;;;;;;;;29.70;24.84;101412.34;4430383;32;20039;-69
2022/07/14 00:44:10;;;;;;;;;;;;;;;29.70;24.86;101404.41;4426353;32;19981;-68
2022/07/14 00:46:36;;;;;;;;;;;;;;;29.72;24.78;101413.34;4422086;32;19954;-68
2022/07/14 00:49:02;;;;;;;;;;;;;;;29.76;24.74;101413.78;4423615;32;19954;-68
2022/07/14 00:51:28;;;;;;;;;;;;;;;29.88;24.59;101412.22;4422872;32;19961;-68
2022/07/14 00:53:57;;;;;;;;;;;;;;;29.68;24.94;101415.78;4420978;32;20000;-68
2022/07/14 00:56:22;;;;;;;;;;;;;;;29.73;24.88;101414.13;4420148;32;20074;-68
2022/07/14 00:58:48;;;;;;;;;;;;;;;29.66;24.85;101403.94;4422115;32;20009;-68
2022/07/14 01:01:14;;;;;;;;;;;;;;;29.75;24.86;101399.81;4420278;32;19962;-68
2022/07/14 01:03:40;;;;;;;;;;;;;;;29.80;24.73;101398.94;4421171;32;19989;-68
2022/07/14 01:06:05;;;;;;;;;;;;;;;29.86;24.75;101394.59;4422501;32;19996;-68
2022/07/14 01:08:31;;;;;;;;;;;;;;;29.83;24.85;101395.72;4419559;32;19993;-68
2022/07/14 01:10:57;;;;;;;;;;;;;;;30.06;24.57;101393.91;4421327;32;19972;-68
2022/07/14 01:13:23;;;;;;;;;;;;;;;30.14;24.45;101389.00;4420382;32;19969;-68
2022/07/14 01:15:48;;;;;;;;;;;;;;;30.11;24.61;101392.22;4418979;32;20005;-68
2022/07/14 01:18:14;;;;;;;;;;;;;;;30.20;24.52;101398.41;4423608;32;19984;-68
2022/07/14 01:20:40;;;;;;;;;;;;;;;30.08;24.63;101397.03;4421248;32;19954;-68
2022/07/14 01:23:06;;;;;;;;;;;;;;;30.10;24.59;101400.16;4422631;32;19962;-68
2022/07/14 01:25:32;;;;;;;;;;;;;;;29.93;24.77;101405.53;4418832;32;19957;-68
2022/07/14 01:27:57;;;;;;;;;;;;;;;29.95;24.75;101399.97;4420898;32;20057;-68
2022/07/14 01:30:23;;;;;;;;;;;;;;;30.08;24.59;101413.66;4422173;32;19990;-68
2022/07/14 01:32:48;;;;;;;;;;;;;;;30.21;24.45;101404.97;4422662;32;20390;-68
2022/07/14 01:35:14;;;;;;;;;;;;;;;30.17;24.53;101404.50;4419179;32;20000;-68
2022/07/14 01:37:41;;;;;;;;;;;;;;;30.10;24.68;101408.09;4420039;32;20001;-68
2022/07/14 01:40:08;;;;;;;;;;;;;;;30.05;24.74;101414.78;4422351;32;20406;-68
2022/07/14 01:42:33;;;;;;;;;;;;;;;30.21;24.56;101411.56;4421232;32;20005;-68
2022/07/14 01:45:02;;;;;;;;;;;;;;;29.99;24.83;101417.03;4421438;32;20060;-68
2022/07/14 01:47:27;;;;;;;;;;;;;;;30.04;24.84;101414.03;4418704;32;19953;-68
2022/07/14 01:49:53;;;;;;;;;;;;;;;29.96;24.83;101410.22;4420852;32;20008;-68
2022/07/14 01:52:18;;;;;;;;;;;;;;;30.10;24.76;101405.19;4421035;32;20030;-68
2022/07/14 01:54:44;;;;;;;;;;;;;;;30.20;24.62;101412.13;4420796;32;20302;-68
2022/07/14 01:57:09;;;;;;;;;;;;;;;29.93;24.97;101413.44;4418146;32;19989;-68
2022/07/14 01:59:35;;;;;;;;;;;;;;;29.83;25.14;101407.31;4420776;32;20007;-68
2022/07/14 02:02:01;;;;;;;;;;;;;;;29.88;24.99;101391.12;4421224;32;19964;-70
2022/07/14 02:04:27;;;;;;;;;;;;;;;29.60;25.35;101402.50;4419537;32;19984;-70
2022/07/14 02:06:54;;;;;;;;;;;;;;;29.88;25.05;101394.81;4417383;32;19957;-70
2022/07/14 02:09:20;;;;;;;;;;;;;;;30.01;24.83;101394.81;4420455;32;20313;-70
2022/07/14 02:12:17;;;;;;;;;;;;;;;30.23;24.58;101391.47;4420848;32;19980;-70
2022/07/14 02:14:32;;;;;;;;;;;;;;;30.18;24.60;101394.44;4419839;32;20044;-70
2022/07/14 02:16:58;;;;;;;;;;;;;;;30.07;24.67;101383.84;4418758;32;19968;-70
2022/07/14 02:19:24;;;;;;;;;;;;;;;30.20;24.68;101397.59;4418064;32;19990;-70
2022/07/14 02:21:50;;;;;;;;;;;;;;;30.50;24.27;101392.94;4419977;32;20354;-70
2022/07/14 02:24:15;;;;;;;;;;;;;;;30.25;24.52;101391.66;4420572;32;19985;-70
2022/07/14 02:26:41;;;;;;;;;;;;;;;30.52;24.25;101395.28;4420283;32;20566;-70
2022/07/14 02:29:07;;;;;;;;;;;;;;;30.29;24.45;101394.25;4418739;32;20011;-70
2022/07/14 02:31:33;;;;;;;;;;;;;;;30.29;24.50;101394.25;4420623;32;19957;-70
2022/07/14 02:33:59;;;;;;;;;;;;;;;30.20;24.70;101403.41;4417783;32;20012;-70
2022/07/14 02:36:25;;;;;;;;;;;;;;;30.27;24.50;101402.72;4419173;32;20028;-70
2022/07/14 02:38:50;;;;;;;;;;;;;;;30.31;24.54;101401.03;4418804;32;20300;-70
2022/07/14 02:41:16;;;;;;;;;;;;;;;30.19;24.62;101393.16;4420526;32;19993;-70
2022/07/14 02:43:42;;;;;;;;;;;;;;;30.38;24.43;101397.47;4418707;32;19950;-70
2022/07/14 02:46:07;;;;;;;;;;;;;;;30.46;24.27;101397.53;4419067;32;20021;-70
2022/07/14 02:48:32;;;;;;;;;;;;;;;30.27;24.62;101388.22;4419185;32;20000;-70
2022/07/14 02:51:00;;;;;;;;;;;;;;;30.20;24.69;101389.69;4420388;32;19988;-70
2022/07/14 02:53:25;;;;;;;;;;;;;;;30.17;24.78;101390.00;4419761;32;19988;-70
2022/07/14 02:55:50;;;;;;;;;;;;;;;30.08;24.92;101396.25;4419996;32;19965;-70
2022/07/14 02:58:18;;;;;;;;;;;;;;;29.90;25.13;101389.22;4419297;32;19958;-70
2022/07/14 03:00:43;;;;;;;;;;;;;;;30.31;24.67;101389.44;4420201;32;20339;-70
2022/07/14 03:03:09;;;;;;;;;;;;;;;30.21;24.78;101387.53;4418595;32;19967;-70
2022/07/14 03:05:34;;;;;;;;;;;;;;;29.78;25.49;101392.91;4418067;32;21232;-70
2022/07/14 03:08:00;;;;;;;;;;;;;;;29.80;25.61;101390.25;4417336;32;20009;-70
2022/07/14 03:10:26;;;;;;;;;;;;;;;30.00;25.47;101386.69;4420928;32;20354;-70
2022/07/14 03:12:52;;;;;;;;;;;;;;;30.07;25.47;101377.28;4420213;32;19975;-70
2022/07/14 03:15:18;;;;;;;;;;;;;;;30.01;25.66;101388.22;4417127;32;20338;-70
2022/07/14 03:17:44;;;;;;;;;;;;;;;30.23;25.44;101388.56;4417560;32;20236;-70
2022/07/14 03:20:09;;;;;;;;;;;;;;;30.18;25.53;101386.56;4421304;32;19989;-70
2022/07/14 03:22:35;;;;;;;;;;;;;;;30.35;25.51;101392.00;4419396;32;20450;-70
2022/07/14 03:25:00;;;;;;;;;;;;;;;30.46;25.30;101389.63;4420099;32;20313;-70
2022/07/14 03:27:26;;;;;;;;;;;;;;;30.71;25.02;101393.03;4417540;32;19962;-70
2022/07/14 03:29:51;;;;;;;;;;;;;;;30.57;25.07;101398.09;4418998;32;20005;-69
2022/07/14 03:32:17;;;;;;;;;;;;;;;30.97;24.70;101384.19;4417989;32;20001;-70
2022/07/14 03:34:42;;;;;;;;;;;;;;;30.85;25.01;101380.00;4416872;32;19953;-70
2022/07/14 03:37:09;;;;;;;;;;;;;;;31.16;24.67;101370.22;4420148;32;20004;-70
2022/07/14 03:39:34;;;;;;;;;;;;;;;31.00;24.96;101379.37;4418266;32;20443;-70
2022/07/14 03:42:00;;;;;;;;;;;;;;;30.88;25.34;101375.97;4419608;32;19949;-70
2022/07/14 03:44:25;;;;;;;;;;;;;;;31.17;24.95;101365.97;4418650;32;19957;-70
2022/07/14 03:46:51;;;;;;;;;;;;;;;31.30;25.05;101368.84;4418031;32;19949;-70
2022/07/14 03:49:16;;;;;;;;;;;;;;;31.33;25.22;101378.53;4420056;32;20007;-70
2022/07/14 03:51:42;;;;;;;;;;;;;;;31.35;25.37;101370.03;4421704;32;19960;-70
2022/07/14 03:54:08;;;;;;;;;;;;;;;31.43;25.30;101373.78;4419365;32;19961;-70
2022/07/14 03:56:34;;;;;;;;;;;;;;;31.30;25.63;101373.88;4417185;32;19989;-70
2022/07/14 03:58:59;;;;;;;;;;;;;;;31.03;26.02;101381.16;4421327;32;19949;-70
2022/07/14 04:01:25;;;;;;;;;;;;;;;31.27;25.83;101375.75;4418977;32;20003;-70
2022/07/14 04:03:51;;;;;;;;;;;;;;;31.38;25.69;101383.44;4418929;32;20380;-70
2022/07/14 04:06:18;;;;;;;;;;;;;;;31.38;25.89;101371.81;4418698;32;20298;-70
2022/07/14 04:08:49;;;;;;;;;;;;;;;31.28;25.90;101371.53;4420617;32;20292;-70
2022/07/14 04:11:15;;;;;;;;;;;;;;;31.55;25.65;101378.72;4421836;32;20020;-70
2022/07/14 04:13:42;;;;;;;;;;;;;;;31.32;25.77;101380.66;4419267;32;20358;-70
2022/07/14 04:16:07;;;;;;;;;;;;;;;31.40;25.88;101378.63;4418311;32;19993;-70
2022/07/14 04:18:33;;;;;;;;;;;;;;;31.44;25.87;101373.22;4418801;32;20762;-70
2022/07/14 04:20:58;;;;;;;;;;;;;;;31.84;25.33;101383.22;4412632;32;20364;-70
2022/07/14 04:23:24;;;;;;;;;;;;;;;31.52;25.56;101376.16;4422856;32;19961;-70
2022/07/14 04:25:49;;;;;;;;;;;;;;;31.83;25.11;101380.88;4423159;32;20026;-70
2022/07/14 04:28:16;;;;;;;;;;;;;;;31.95;24.91;101382.13;4420537;32;20448;-70
2022/07/14 04:30:41;;;;;;;;;;;;;;;31.79;25.11;101377.53;4420930;32;20036;-70
2022/07/14 04:33:07;;;;;;;;;;;;;;;32.00;24.82;101373.22;4420598;32;20463;-70
2022/07/14 04:35:32;;;;;;;;;;;;;;;32.07;24.61;101378.31;4420927;32;19984;-70
2022/07/14 04:37:58;;;;;;;;;;;;;;;31.92;24.60;101378.22;4420874;32;19983;-70
2022/07/14 04:40:23;;;;;;;;;;;;;;;31.96;24.36;101375.72;4420181;32;20021;-70
2022/07/14 04:42:49;;;;;;;;;;;;;;;32.21;24.18;101364.41;4420771;32;20030;-70
2022/07/14 04:45:14;;;;;;;;;;;;;;;32.25;24.03;101362.69;4421573;32;20030;-70
2022/07/14 04:47:39;;;;;;;;;;;;;;;32.16;24.11;101356.59;4423009;32;20009;-70
2022/07/14 04:52:50;;;;;;;;;;;;;;;32.29;23.89;101365.97;4420823;32;19990;-70
2022/07/14 04:55:16;;;;;;;;;;;;;;;32.30;23.76;101364.63;4425198;32;20344;-70
2022/07/14 04:57:42;;;;;;;;;;;;;;;32.53;23.58;101358.91;4421917;32;19989;-70
2022/07/14 05:00:09;;;;;;;;;;;;;;;32.19;23.92;101367.09;4422360;32;20219;-70
2022/07/14 05:02:35;;;;;;;;;;;;;;;32.16;23.67;101365.34;4421204;32;20329;-70
2022/07/14 05:05:01;;;;;;;;;;;;;;;32.38;23.57;101364.69;4421257;32;20301;-70
2022/07/14 05:07:26;;;;;;;;;;;;;;;32.52;23.39;101361.03;4419570;32;20001;-70
2022/07/14 05:09:52;;;;;;;;;;;;;;;32.45;23.46;101364.72;4423640;32;20370;-70
2022/07/14 05:12:18;;;;;;;;;;;;;;;32.62;23.26;101367.09;4421036;32;20415;-70
2022/07/14 05:14:45;;;;;;;;;;;;;;;32.59;23.28;101366.13;4421345;32;20377;-70
2022/07/14 05:17:11;;;;;;;;;;;;;;;32.33;23.52;101360.56;4423333;32;20366;-70
2022/07/14 05:19:38;;;;;;;;;;;;;;;32.48;23.30;101362.75;4421715;32;19997;-70
2022/07/14 05:22:03;;;;;;;;;;;;;;;32.16;23.71;101360.31;4420440;32;20012;-70
2022/07/14 05:24:29;;;;;;;;;;;;;;;31.62;24.48;101366.34;4420458;32;19992;-70
2022/07/14 05:26:57;;;;;;;;;;;;;;;31.74;24.37;101361.00;4421777;32;20442;-70
2022/07/14 05:29:22;;;;;;;;;;;;;;;31.86;24.42;101351.41;4422070;32;20001;-70
2022/07/14 05:31:48;;;;;;;;;;;;;;;32.08;24.16;101353.66;4421073;32;19971;-70
2022/07/14 05:34:13;;;;;;;;;;;;;;;31.83;24.47;101349.66;4421087;32;19982;-70
2022/07/14 05:36:39;;;;;;;;;;;;;;;32.15;23.95;101361.63;4420029;32;20368;-70
2022/07/14 05:39:05;;;;;;;;;;;;;;;32.44;23.66;101362.37;4419858;32;20104;-70
2022/07/14 05:41:31;;;;;;;;;;;;;;;32.46;23.67;101363.34;4421128;32;19964;-70
2022/07/14 05:43:56;;;;;;;;;;;;;;;32.67;23.52;101371.19;4419984;32;19993;-70
2022/07/14 05:46:21;;;;;;;;;;;;;;;32.41;23.94;101364.31;4421650;32;20065;-70
2022/07/14 05:48:47;;;;;;;;;;;;;;;32.74;23.77;101361.69;4421592;32;19957;-70
2022/07/14 05:51:15;;;;;;;;;;;;;;;32.63;23.86;101368.66;4420812;32;20020;-70
2022/07/14 05:53:41;;;;;;;;;;;;;;;32.67;23.97;101371.19;4422763;32;20314;-70
2022/07/14 05:56:07;;;;;;;;;;;;;;;32.75;23.77;101374.88;4420908;32;20721;-70
2022/07/14 05:58:34;;;;;;;;;;;;;;;31.77;24.97;101372.28;4422262;32;20375;-70
2022/07/14 06:01:00;;;;;;;;;;;;;;;32.24;24.34;101369.84;4418939;32;20311;-70
2022/07/14 06:03:25;;;;;;;;;;;;;;;31.75;25.10;101377.13;4423073;32;20007;-70
2022/07/14 06:05:51;;;;;;;;;;;;;;;31.90;24.94;101374.34;4419812;32;20010;-70
2022/07/14 06:08:16;;;;;;;;;;;;;;;32.19;24.68;101379.53;4420503;32;19993;-70
2022/07/14 06:10:42;;;;;;;;;;;;;;;32.73;24.04;101374.72;4422314;32;20023;-70
2022/07/14 06:13:07;;;;;;;;;;;;;;;32.98;23.85;101379.47;4421277;32;19966;-70
2022/07/14 06:15:33;;;;;;;;;;;;;;;32.67;24.12;101383.59;4419114;32;19973;-70
2022/07/14 06:17:59;;;;;;;;;;;;;;;31.84;25.37;101374.47;4420291;32;19968;-70
2022/07/14 06:20:25;;;;;;;;;;;;;;;31.55;25.76;101378.72;4421321;32;20001;-70
2022/07/14 06:22:50;;;;;;;;;;;;;;;31.59;25.79;101384.97;4422512;32;19973;-70
2022/07/14 06:25:16;;;;;;;;;;;;;;;31.85;25.54;101386.91;4420297;32;19997;-70
2022/07/14 06:27:42;;;;;;;;;;;;;;;31.14;26.50;101378.75;4418572;32;19962;-71
2022/07/14 06:30:08;;;;;;;;;;;;;;;31.22;26.53;101372.97;4419295;32;20389;-71
2022/07/14 06:32:36;;;;;;;;;;;;;;;31.14;26.59;101375.84;4419976;32;19997;-70
2022/07/14 06:35:02;;;;;;;;;;;;;;;30.33;27.75;101391.78;4419695;32;20437;-70
2022/07/14 06:37:28;;;;;;;;;;;;;;;30.24;27.89;101387.22;4421092;32;19992;-70
2022/07/14 06:39:54;;;;;;;;;;;;;;;30.71;27.31;101390.13;4421248;32;20520;-71
2022/07/14 06:42:20;;;;;;;;;;;;;;;30.09;28.24;101380.38;4412027;32;19996;-70
2022/07/14 06:44:45;;;;;;;;;;;;;;;30.46;27.64;101383.81;4405132;32;20027;-70
2022/07/14 06:47:12;;;;;;;;;;;;;;;30.70;27.45;101379.81;4410028;32;19989;-70
2022/07/14 06:49:38;;;;;;;;;;;;;;;31.17;26.77;101374.69;4396473;32;19972;-70
2022/07/14 06:52:05;;;;;;;;;;;;;;;31.43;26.57;101382.50;4394802;32;20016;-71
2022/07/14 06:54:30;;;;;;;;;;;;;;;31.43;26.52;101386.19;4411312;32;19997;-70
2022/07/14 06:56:56;;;;;;;;;;;;;;;31.57;26.41;101383.97;4410474;32;19969;-71
2022/07/14 06:59:22;;;;;;;;;;;;;;;32.60;25.17;101379.34;4407389;32;19976;-71
2022/07/14 07:01:47;;;;;;;;;;;;;;;32.21;25.51;101385.56;4413032;32;21424;-70
2022/07/14 07:04:13;;;;;;;;;;;;;;;31.17;26.83;101386.31;4411754;32;19989;-70
2022/07/14 07:06:46;;;;;;;;;;;;;;;31.46;26.72;101393.78;4411977;32;20318;-70
2022/07/14 07:09:12;;;;;;;;;;;;;;;31.64;26.33;101395.69;4410393;32;20012;-70
2022/07/14 07:11:38;;;;;;;;;;;;;;;31.10;26.93;101404.47;4410105;32;19980;-70
2022/07/14 07:14:04;;;;;;;;;;;;;;;31.93;25.96;101399.37;4407547;32;19953;-71
2022/07/14 07:16:29;;;;;;;;;;;;;;;32.05;25.83;101397.69;4411987;32;20344;-70
2022/07/14 07:18:55;;;;;;;;;;;;;;;31.32;26.58;101400.28;4408404;32;19997;-70
2022/07/14 07:21:23;;;;;;;;;;;;;;;32.17;25.49;101404.75;4407318;32;19988;-69
2022/07/14 07:23:49;;;;;;;;;;;;;;;32.37;25.33;101401.78;4404847;32;20250;-69
2022/07/14 07:26:16;;;;;;;;;;;;;;;31.69;26.07;101396.88;4415460;32;19965;-69
2022/07/14 07:28:41;;;;;;;;;;;;;;;32.54;25.10;101396.22;4416430;32;19985;-69
2022/07/14 07:31:07;;;;;;;;;;;;;;;32.06;25.86;101410.94;4410563;32;19996;-70
2022/07/14 07:33:32;;;;;;;;;;;;;;;31.56;26.01;101402.78;4417127;32;19993;-70
2022/07/14 07:35:59;;;;;;;;;;;;;;;31.56;26.14;101417.31;4409454;32;19966;-70
2022/07/14 07:38:25;;;;;;;;;;;;;;;32.43;25.02;101404.53;4417473;32;19968;-69
2022/07/14 07:40:53;;;;;;;;;;;;;;;32.73;24.52;101416.28;4419620;32;19962;-69
2022/07/14 07:43:20;;;;;;;;;;;;;;;33.33;24.08;101409.81;4419056;32;20289;-69
2022/07/14 07:45:47;;;;;;;;;;;;;;;32.54;24.89;101404.97;4413151;32;20004;-69
2022/07/14 07:48:17;;;;;;;;;;;;;;;33.36;23.97;101403.59;4413001;32;21418;-70
2022/07/14 07:50:43;;;;;;;;;;;;;;;32.33;24.81;101407.16;4413726;32;20374;-69
2022/07/14 07:53:09;;;;;;;;;;;;;;;32.25;24.57;101403.47;4412866;32;19995;-72
2022/07/14 07:55:34;;;;;;;;;;;;;;;32.70;24.00;101407.94;4406787;32;19962;-70
2022/07/14 07:58:00;;;;;;;;;;;;;;;33.36;23.54;101402.78;4412767;32;20350;-70
2022/07/14 08:00:28;;;;;;;;;;;;;;;33.89;22.76;101400.66;4414819;32;19976;-70
2022/07/14 08:02:54;;;;;;;;;;;;;;;33.89;22.69;101406.50;4410092;32;19965;-69
2022/07/14 08:05:22;;;;;;;;;;;;;;;33.51;22.80;101421.13;4411181;32;19977;-69
2022/07/14 08:07:48;;;;;;;;;;;;;;;33.41;22.81;101417.22;4403469;32;20331;-69
2022/07/14 08:10:14;;;;;;;;;;;;;;;33.09;23.26;101419.91;4401820;32;20202;-69
2022/07/14 08:12:40;;;;;;;;;;;;;;;32.79;23.63;101425.62;4409861;32;20153;-69
2022/07/14 08:15:06;;;;;;;;;;;;;;;32.92;23.74;101427.66;4409315;32;20036;-70
2022/07/14 08:17:32;;;;;;;;;;;;;;;32.38;24.51;101420.81;4411599;32;20146;-70
2022/07/14 08:20:00;;;;;;;;;;;;;;;33.14;23.75;101432.75;4414086;32;20268;-69
2022/07/14 08:22:27;;;;;;;;;;;;;;;33.28;23.41;101439.97;4414370;32;20008;-71
2022/07/14 08:24:53;;;;;;;;;;;;;;;33.12;23.70;101445.00;4412220;32;20407;-71
2022/07/14 08:27:19;;;;;;;;;;;;;;;32.93;23.61;101447.47;4414382;32;20005;-71
2022/07/14 08:29:44;;;;;;;;;;;;;;;32.89;23.68;101438.34;4411012;32;20637;-70
2022/07/14 08:32:10;;;;;;;;;;;;;;;33.28;23.10;101426.13;4410831;32;19988;-70
2022/07/14 08:34:36;;;;;;;;;;;;;;;33.04;23.47;101443.44;4409892;32;20048;-71
2022/07/14 08:37:01;;;;;;;;;;;;;;;33.51;22.86;101434.94;4408104;32;20013;-71
2022/07/14 08:39:27;;;;;;;;;;;;;;;32.78;23.87;101432.03;4405978;32;20002;-71
2022/07/14 08:41:54;;;;;;;;;;;;;;;33.43;23.05;101429.09;4398800;32;20014;-71
2022/07/14 08:44:20;;;;;;;;;;;;;;;33.47;23.07;101428.72;4409538;32;20399;-71
2022/07/14 08:46:46;;;;;;;;;;;;;;;33.50;22.87;101422.47;4413335;32;20080;-70
2022/07/14 08:49:12;;;;;;;;;;;;;;;33.58;22.72;101422.47;4412222;32;20008;-71
2022/07/14 08:51:39;;;;;;;;;;;;;;;34.47;21.69;101428.78;4398131;32;19970;-69
2022/07/14 08:54:04;;;;;;;;;;;;;;;34.26;21.61;101423.16;4408818;32;20004;-70
2022/07/14 08:56:30;;;;;;;;;;;;;;;34.49;20.90;101429.72;4413368;32;20323;-71
2022/07/14 08:58:56;;;;;;;;;;;;;;;34.77;20.56;101428.59;4411767;32;20762;-71
2022/07/14 09:01:21;;;;;;;;;;;;;;;34.12;20.83;101433.53;4413146;32;20335;-70
2022/07/14 09:03:47;;;;;;;;;;;;;;;34.98;20.24;101432.81;4413588;32;20015;-71
2022/07/14 09:06:33;;;;;;;;;;;;;;;35.26;19.86;101435.34;4416719;32;19996;-71
2022/07/14 09:08:59;;;;;;;;;;;;;;;35.83;19.35;101429.47;4412984;32;19977;-71
2022/07/14 09:11:24;;;;;;;;;;;;;;;35.73;19.09;101443.97;4420659;32;20087;-71
2022/07/14 09:13:50;;;;;;;;;;;;;;;36.03;18.69;101440.75;4421854;32;19977;-71
2022/07/14 09:16:18;;;;;;;;;;;;;;;36.01;19.03;101439.78;4423100;32;19989;-70
2022/07/14 09:19:00;;;;;;;;;;;;;;;35.85;19.05;101442.12;4425324;32;20188;-70
2022/07/14 09:21:26;;;;;;;;;;;;;;;35.42;19.45;101445.59;4425318;32;19999;-70
2022/07/14 09:23:54;;;;;;;;;;;;;;;35.99;18.89;101433.78;4421967;32;20001;-70
2022/07/14 09:26:20;;;;;;;;;;;;;;;35.10;19.64;101433.13;4423512;32;20017;-70
2022/07/14 09:28:47;;;;;;;;;;;;;;;35.77;19.06;101431.81;4422707;32;19993;-70
2022/07/14 09:31:28;;;;;;;;;;;;;;;35.54;19.14;101446.66;4426938;32;19957;-70
2022/07/14 09:36:35;;;;;;;;;;;;;;;35.53;19.09;101456.84;3952840;32;15734477;-71
2022/07/14 09:39:05;;;;;;;;;;;;;;;35.53;19.09;101456.84;4420862;32;20026;-70
2022/07/14 09:41:33;;;;;;;;;;;;;;;35.47;18.44;101465.09;4417462;32;19957;-70
2022/07/14 09:44:14;;;;;;;;;;;;;;;35.81;18.17;101462.28;4416031;32;20393;-70
2022/07/14 09:46:44;;;;;;;;;;;;;;;35.59;18.32;101466.12;4407535;32;20001;-70
2022/07/14 09:49:12;;;;;;;;;;;;;;;35.40;18.15;101457.13;4415337;32;20390;-70
2022/07/14 09:51:57;;;;;;;;;;;;;;;35.56;17.68;101463.63;4412800;32;20011;-70
2022/07/14 09:59:53;;;;;;;;;;;;;;;35.21;17.70;101486.09;3946119;32;15723476;-69
2022/07/14 10:02:21;;;;;;;;;;;;;;;35.21;17.70;101486.09;4419583;32;20487;-70
2022/07/14 10:04:49;;;;;;;;;;;;;;;34.09;17.96;101485.16;4419873;32;20085;-70
2022/07/14 10:07:15;;;;;;;;;;;;;;;35.01;17.05;101490.13;4423028;32;20009;-70
2022/07/14 10:09:43;;;;;;;;;;;;;;;34.35;18.25;101483.91;4424475;32;20306;-70
2022/07/14 10:12:09;;;;;;;;;;;;;;;33.89;18.71;101497.03;4421475;32;20013;-70
2022/07/14 10:14:36;;;;;;;;;;;;;;;34.17;18.51;101493.88;4420274;32;19996;-69
2022/07/14 10:17:02;;;;;;;;;;;;;;;34.06;18.86;101497.22;4420715;32;20090;-70
2022/07/14 10:19:27;;;;;;;;;;;;;;;34.77;17.87;101504.66;4423340;32;19997;-70
2022/07/14 10:21:55;;;;;;;;;;;;;;;34.86;17.53;101510.69;4420220;32;20650;-70
2022/07/14 10:24:23;;;;;;;;;;;;;;;35.18;17.31;101504.09;4421084;32;19996;-70
2022/07/14 10:26:48;;;;;;;;;;;;;;;35.84;16.89;101504.22;4416511;32;20636;-71
2022/07/14 10:29:14;;;;;;;;;;;;;;;35.55;17.32;101508.94;4418554;32;20053;-70
2022/07/14 10:34:37;;;;;;;;;;;;;;;38.52;15.08;101514.19;3914206;32;15852996;-72
2022/07/14 10:37:22;;;;;;;;;;;;;;;38.52;15.08;101514.19;4381195;32;21390;-72
2022/07/14 10:39:54;;;;;;;;;;;;;;;38.01;15.43;101505.72;4377795;32;20003;-71
2022/07/14 10:42:39;;;;;;;;;;;;;;;37.67;15.72;101518.44;4386427;32;19990;-72
2022/07/14 10:45:05;;;;;;;;;;;;;;;36.72;16.70;101505.28;4391137;32;20480;-72
2022/07/14 10:47:48;;;;;;;;;;;;;;;36.28;16.73;101507.38;4387678;32;20039;-72
2022/07/14 10:50:18;;;;;;;;;;;;;;;36.13;16.69;101517.81;4387899;32;20418;-71
2022/07/14 10:53:03;;;;;;;;;;;;;;;35.92;17.04;101520.38;4385007;32;19981;-73
2022/07/14 11:08:37;;;;;;;;;;;;;;;38.77;15.30;101496.25;3943645;32;15727645;-71
2022/07/14 11:11:08;;;;;;;;;;;;;;;38.77;15.30;101496.25;4419523;32;19961;-71
2022/07/14 11:13:34;;;;;;;;;;;;;;;38.34;15.19;101495.13;4421315;32;20064;-71
2022/07/14 11:18:37;;;;;;;;;;;;;;;37.79;15.49;101492.19;3945715;32;15722453;-71
2022/07/14 11:23:54;;;;;;;;;;;;;;;36.53;16.34;101502.19;3947344;32;15723102;-71
2022/07/14 11:26:37;;;;;;;;;;;;;;;36.53;16.34;101502.19;4418903;32;19965;-71
2022/07/14 11:29:04;;;;;;;;;;;;;;;35.78;16.89;101486.88;4422631;32;19981;-70
2022/07/14 11:31:42;;;;;;;;;;;;;;;36.48;16.29;101495.22;4420111;32;20016;-69
2022/07/14 11:37:05;;;;;;;;;;;;;;;37.02;15.95;101496.88;4422018;32;20021;-70
2022/07/14 11:39:34;;;;;;;;;;;;;;;36.27;16.72;101488.19;4421672;32;20389;-69
2022/07/14 11:47:22;;;;;;;;;;;;;;;37.08;15.94;101497.38;3947928;32;15724595;-70
2022/07/14 11:52:32;;;;;;;;;;;;;;;35.54;17.49;101498.59;3945461;32;15723438;-70
2022/07/14 11:55:00;;;;;;;;;;;;;;;35.54;17.49;101498.59;4421450;32;19990;-69
2022/07/14 11:57:26;;;;;;;;;;;;;;;35.38;17.33;101497.94;4421350;32;20002;-69
2022/07/14 11:59:53;;;;;;;;;;;;;;;35.33;16.85;101498.13;4424380;32;19965;-72
2022/07/14 12:02:20;;;;;;;;;;;;;;;36.31;16.01;101500.28;4419714;32;20103;-70
2022/07/14 12:04:54;;;;;;;;;;;;;;;36.54;15.39;101489.84;4423200;32;20017;-70
2022/07/14 12:07:22;;;;;;;;;;;;;;;36.67;15.22;101497.50;4420320;32;20009;-70
2022/07/14 12:09:48;;;;;;;;;;;;;;;36.60;15.41;101502.09;4422779;32;19961;-70
2022/07/14 12:12:15;;;;;;;;;;;;;;;36.84;15.00;101491.66;4423351;32;20333;-70
2022/07/14 12:14:49;;;;;;;;;;;;;;;36.17;16.00;101496.91;4421932;32;19981;-71
2022/07/14 12:17:15;;;;;;;;;;;;;;;36.85;15.76;101505.72;4419716;32;20036;-71
2022/07/14 12:19:41;;;;;;;;;;;;;;;36.32;16.05;101507.72;4420302;32;19984;-70
2022/07/14 12:22:06;;;;;;;;;;;;;;;36.34;16.01;101502.78;4422432;32;20004;-70
2022/07/14 12:24:32;;;;;;;;;;;;;;;37.57;15.08;101496.25;4418576;32;20016;-70
2022/07/14 12:27:00;;;;;;;;;;;;;;;37.10;15.53;101485.81;4421982;32;20017;-70
2022/07/14 12:29:26;;;;;;;;;;;;;;;38.68;14.23;101491.91;4423830;32;19981;-71
2022/07/14 12:31:52;;;;;;;;;;;;;;;38.80;14.08;101495.00;4422953;32;19987;-70
2022/07/14 12:34:18;;;;;;;;;;;;;;;38.39;14.06;101507.97;4419537;32;19993;-70
2022/07/14 12:36:43;;;;;;;;;;;;;;;38.79;13.96;101491.28;4419006;32;20193;-71
2022/07/14 12:39:10;;;;;;;;;;;;;;;38.94;13.89;101504.87;4420727;32;20004;-71
2022/07/14 12:41:37;;;;;;;;;;;;;;;39.33;13.73;101504.19;4421694;32;19997;-70
2022/07/14 12:44:04;;;;;;;;;;;;;;;40.47;13.01;101517.63;4418832;32;19949;-70
2022/07/14 12:46:29;;;;;;;;;;;;;;;39.00;14.17;101509.09;4418962;32;20001;-70
2022/07/14 12:48:56;;;;;;;;;;;;;;;38.88;14.16;101508.16;4409672;32;20077;-71
2022/07/14 12:51:26;;;;;;;;;;;;;;;40.58;12.88;101513.94;4422756;32;19958;-70
2022/07/14 12:56:34;;;;;;;;;;;;;;;38.19;14.31;101518.19;3947860;32;15725408;-71
2022/07/14 12:59:01;;;;;;;;;;;;;;;38.19;14.31;101518.19;4424365;32;20865;-71
2022/07/14 13:01:27;;;;;;;;;;;;;;;37.53;14.65;101504.75;4423781;32;20023;-71
2022/07/14 13:03:58;;;;;;;;;;;;;;;38.11;14.21;101514.59;4421197;32;19973;-71
2022/07/14 13:06:25;;;;;;;;;;;;;;;38.34;14.05;101515.72;4425509;32;19973;-70
2022/07/14 13:08:51;;;;;;;;;;;;;;;38.20;14.22;101520.50;4423125;32;20014;-69
2022/07/14 13:11:17;;;;;;;;;;;;;;;39.53;13.61;101516.72;4423265;32;20458;-69
2022/07/14 13:13:43;;;;;;;;;;;;;;;40.13;13.18;101509.31;4409109;32;20044;-69
2022/07/14 13:16:25;;;;;;;;;;;;;;;40.16;12.70;101505.09;4418613;32;19957;-70
2022/07/14 13:19:12;;;;;;;;;;;;;;;40.17;12.56;101511.75;4421024;32;20606;-69